sensor_id;sensor_type;location;lat;lon;timestamp;P1;durP1;ratioP1;P2;durP2;ratioP2
20531;SDS011;10424;52.102;8.084;2023-03-04T00:01:34;17.60;;;3.90;;
20531;SDS011;10424;52.102;8.084;2023-03-04T00:04:01;18.40;;;3.83;;
20531;SDS011;10424;52.102;8.084;2023-03-04T00:06:28;22.37;;;3.97;;
20531;SDS011;10424;52.102;8.084;2023-03-04T00:08:57;12.60;;;3.90;;
20531;SDS011;10424;52.102;8.084;2023-03-04T00:11:24;14.47;;;3.90;;
20531;SDS011;10424;52.102;8.084;2023-03-04T00:13:52;20.67;;;3.37;;
20531;SDS011;10424;52.102;8.084;2023-03-04T00:16:19;18.07;;;3.53;;
20531;SDS011;10424;52.102;8.084;2023-03-04T00:18:46;12.33;;;3.10;;
20531;SDS011;10424;52.102;8.084;2023-03-04T00:21:13;13.30;;;3.33;;
20531;SDS011;10424;52.102;8.084;2023-03-04T00:23:41;17.03;;;3.03;;
20531;SDS011;10424;52.102;8.084;2023-03-04T00:26:09;19.07;;;3.13;;
20531;SDS011;10424;52.102;8.084;2023-03-04T00:28:37;18.77;;;3.93;;
20531;SDS011;10424;52.102;8.084;2023-03-04T00:31:05;13.23;;;3.00;;
20531;SDS011;10424;52.102;8.084;2023-03-04T00:33:32;21.90;;;3.27;;
20531;SDS011;10424;52.102;8.084;2023-03-04T00:35:59;10.20;;;2.80;;
20531;SDS011;10424;52.102;8.084;2023-03-04T00:38:27;13.73;;;3.20;;
20531;SDS011;10424;52.102;8.084;2023-03-04T00:40:54;15.00;;;3.17;;
20531;SDS011;10424;52.102;8.084;2023-03-04T00:43:23;14.40;;;3.10;;
20531;SDS011;10424;52.102;8.084;2023-03-04T00:45:50;15.17;;;3.20;;
20531;SDS011;10424;52.102;8.084;2023-03-04T00:48:17;12.83;;;3.13;;
20531;SDS011;10424;52.102;8.084;2023-03-04T00:50:44;19.23;;;3.10;;
20531;SDS011;10424;52.102;8.084;2023-03-04T00:53:13;15.33;;;3.00;;
20531;SDS011;10424;52.102;8.084;2023-03-04T00:55:40;17.17;;;3.20;;
20531;SDS011;10424;52.102;8.084;2023-03-04T00:58:07;13.53;;;3.10;;
20531;SDS011;10424;52.102;8.084;2023-03-04T01:00:36;17.50;;;3.20;;
20531;SDS011;10424;52.102;8.084;2023-03-04T01:03:03;13.33;;;3.37;;
20531;SDS011;10424;52.102;8.084;2023-03-04T01:05:30;16.90;;;3.50;;
20531;SDS011;10424;52.102;8.084;2023-03-04T01:08:00;14.70;;;3.33;;
20531;SDS011;10424;52.102;8.084;2023-03-04T01:10:27;20.07;;;3.00;;
20531;SDS011;10424;52.102;8.084;2023-03-04T01:12:54;15.00;;;3.00;;
20531;SDS011;10424;52.102;8.084;2023-03-04T01:15:21;15.07;;;2.87;;
20531;SDS011;10424;52.102;8.084;2023-03-04T01:17:50;19.07;;;3.10;;
20531;SDS011;10424;52.102;8.084;2023-03-04T01:20:17;16.43;;;2.90;;
20531;SDS011;10424;52.102;8.084;2023-03-04T01:22:45;17.83;;;2.80;;
20531;SDS011;10424;52.102;8.084;2023-03-04T01:25:13;13.60;;;3.40;;
20531;SDS011;10424;52.102;8.084;2023-03-04T01:27:40;11.63;;;3.00;;
20531;SDS011;10424;52.102;8.084;2023-03-04T01:30:08;14.70;;;3.20;;
20531;SDS011;10424;52.102;8.084;2023-03-04T01:32:36;11.40;;;3.13;;
20531;SDS011;10424;52.102;8.084;2023-03-04T01:35:05;20.70;;;3.07;;
20531;SDS011;10424;52.102;8.084;2023-03-04T01:37:32;14.47;;;3.00;;
20531;SDS011;10424;52.102;8.084;2023-03-04T01:39:59;17.77;;;3.10;;
20531;SDS011;10424;52.102;8.084;2023-03-04T01:42:27;15.27;;;2.90;;
20531;SDS011;10424;52.102;8.084;2023-03-04T01:44:56;14.27;;;2.90;;
20531;SDS011;10424;52.102;8.084;2023-03-04T01:47:23;17.20;;;3.37;;
20531;SDS011;10424;52.102;8.084;2023-03-04T01:49:52;13.03;;;3.00;;
20531;SDS011;10424;52.102;8.084;2023-03-04T01:52:21;15.97;;;2.80;;
20531;SDS011;10424;52.102;8.084;2023-03-04T01:54:48;12.13;;;2.77;;
20531;SDS011;10424;52.102;8.084;2023-03-04T01:57:16;17.17;;;3.13;;
20531;SDS011;10424;52.102;8.084;2023-03-04T01:59:45;14.13;;;2.90;;
20531;SDS011;10424;52.102;8.084;2023-03-04T02:02:12;12.57;;;3.10;;
20531;SDS011;10424;52.102;8.084;2023-03-04T02:04:40;11.03;;;2.50;;
20531;SDS011;10424;52.102;8.084;2023-03-04T02:07:08;15.17;;;2.90;;
20531;SDS011;10424;52.102;8.084;2023-03-04T02:09:36;14.37;;;3.37;;
20531;SDS011;10424;52.102;8.084;2023-03-04T02:12:04;10.67;;;2.60;;
20531;SDS011;10424;52.102;8.084;2023-03-04T02:14:31;11.37;;;2.47;;
20531;SDS011;10424;52.102;8.084;2023-03-04T02:16:59;15.23;;;2.50;;
20531;SDS011;10424;52.102;8.084;2023-03-04T02:19:29;13.90;;;3.17;;
20531;SDS011;10424;52.102;8.084;2023-03-04T02:21:59;11.83;;;2.60;;
20531;SDS011;10424;52.102;8.084;2023-03-04T02:24:28;13.63;;;2.93;;
20531;SDS011;10424;52.102;8.084;2023-03-04T02:26:57;10.60;;;2.77;;
20531;SDS011;10424;52.102;8.084;2023-03-04T02:29:25;16.70;;;3.63;;
20531;SDS011;10424;52.102;8.084;2023-03-04T02:31:52;18.17;;;3.30;;
20531;SDS011;10424;52.102;8.084;2023-03-04T02:34:20;13.90;;;3.47;;
20531;SDS011;10424;52.102;8.084;2023-03-04T02:36:49;14.10;;;3.40;;
20531;SDS011;10424;52.102;8.084;2023-03-04T02:39:21;17.63;;;3.97;;
20531;SDS011;10424;52.102;8.084;2023-03-04T02:41:49;14.50;;;3.20;;
20531;SDS011;10424;52.102;8.084;2023-03-04T02:44:18;12.67;;;3.37;;
20531;SDS011;10424;52.102;8.084;2023-03-04T02:46:46;16.70;;;3.30;;
20531;SDS011;10424;52.102;8.084;2023-03-04T02:49:13;14.30;;;3.70;;
20531;SDS011;10424;52.102;8.084;2023-03-04T02:51:41;16.30;;;3.87;;
20531;SDS011;10424;52.102;8.084;2023-03-04T02:54:13;12.87;;;3.63;;
20531;SDS011;10424;52.102;8.084;2023-03-04T02:56:43;11.90;;;3.67;;
20531;SDS011;10424;52.102;8.084;2023-03-04T02:59:10;14.50;;;3.67;;
20531;SDS011;10424;52.102;8.084;2023-03-04T03:01:39;15.53;;;3.47;;
20531;SDS011;10424;52.102;8.084;2023-03-04T03:04:06;11.67;;;3.53;;
20531;SDS011;10424;52.102;8.084;2023-03-04T03:06:34;16.73;;;3.60;;
20531;SDS011;10424;52.102;8.084;2023-03-04T03:09:01;14.10;;;3.40;;
20531;SDS011;10424;52.102;8.084;2023-03-04T03:11:29;12.10;;;3.40;;
20531;SDS011;10424;52.102;8.084;2023-03-04T03:13:56;11.33;;;3.23;;
20531;SDS011;10424;52.102;8.084;2023-03-04T03:16:24;11.60;;;3.10;;
20531;SDS011;10424;52.102;8.084;2023-03-04T03:18:52;10.27;;;3.50;;
20531;SDS011;10424;52.102;8.084;2023-03-04T03:21:20;9.77;;;2.97;;
20531;SDS011;10424;52.102;8.084;2023-03-04T03:23:47;19.83;;;3.57;;
20531;SDS011;10424;52.102;8.084;2023-03-04T03:26:14;17.73;;;3.30;;
20531;SDS011;10424;52.102;8.084;2023-03-04T03:28:41;7.57;;;2.83;;
20531;SDS011;10424;52.102;8.084;2023-03-04T03:31:09;12.40;;;3.30;;
20531;SDS011;10424;52.102;8.084;2023-03-04T03:33:36;11.63;;;3.40;;
20531;SDS011;10424;52.102;8.084;2023-03-04T03:36:05;13.33;;;3.30;;
20531;SDS011;10424;52.102;8.084;2023-03-04T03:38:32;14.53;;;3.47;;
20531;SDS011;10424;52.102;8.084;2023-03-04T03:41:00;14.37;;;2.90;;
20531;SDS011;10424;52.102;8.084;2023-03-04T03:43:27;11.70;;;2.70;;
20531;SDS011;10424;52.102;8.084;2023-03-04T03:45:54;9.60;;;2.57;;
20531;SDS011;10424;52.102;8.084;2023-03-04T03:48:21;12.10;;;2.60;;
20531;SDS011;10424;52.102;8.084;2023-03-04T03:50:49;13.40;;;2.67;;
20531;SDS011;10424;52.102;8.084;2023-03-04T03:53:18;16.63;;;3.37;;
20531;SDS011;10424;52.102;8.084;2023-03-04T03:55:45;11.27;;;2.43;;
20531;SDS011;10424;52.102;8.084;2023-03-04T03:58:12;15.10;;;2.53;;
20531;SDS011;10424;52.102;8.084;2023-03-04T04:00:39;11.33;;;2.60;;
20531;SDS011;10424;52.102;8.084;2023-03-04T04:03:07;12.37;;;2.43;;
20531;SDS011;10424;52.102;8.084;2023-03-04T04:05:35;9.73;;;2.23;;
20531;SDS011;10424;52.102;8.084;2023-03-04T04:08:02;8.23;;;2.03;;
20531;SDS011;10424;52.102;8.084;2023-03-04T04:10:31;8.73;;;2.13;;
20531;SDS011;10424;52.102;8.084;2023-03-04T04:12:58;11.90;;;2.23;;
20531;SDS011;10424;52.102;8.084;2023-03-04T04:15:25;10.83;;;2.00;;
20531;SDS011;10424;52.102;8.084;2023-03-04T04:17:53;11.93;;;2.20;;
20531;SDS011;10424;52.102;8.084;2023-03-04T04:20:20;13.10;;;2.20;;
20531;SDS011;10424;52.102;8.084;2023-03-04T04:22:47;11.87;;;2.43;;
20531;SDS011;10424;52.102;8.084;2023-03-04T04:25:14;11.40;;;1.90;;
20531;SDS011;10424;52.102;8.084;2023-03-04T04:27:43;9.43;;;2.17;;
20531;SDS011;10424;52.102;8.084;2023-03-04T04:30:10;8.63;;;2.30;;
20531;SDS011;10424;52.102;8.084;2023-03-04T04:32:38;10.67;;;2.33;;
20531;SDS011;10424;52.102;8.084;2023-03-04T04:35:06;13.73;;;2.60;;
20531;SDS011;10424;52.102;8.084;2023-03-04T04:37:33;10.13;;;2.50;;
20531;SDS011;10424;52.102;8.084;2023-03-04T04:40:00;10.97;;;2.03;;
20531;SDS011;10424;52.102;8.084;2023-03-04T04:42:27;6.63;;;2.53;;
20531;SDS011;10424;52.102;8.084;2023-03-04T04:44:56;9.73;;;2.40;;
20531;SDS011;10424;52.102;8.084;2023-03-04T04:47:24;7.70;;;2.60;;
20531;SDS011;10424;52.102;8.084;2023-03-04T04:49:51;11.40;;;2.10;;
20531;SDS011;10424;52.102;8.084;2023-03-04T04:52:18;9.60;;;2.23;;
20531;SDS011;10424;52.102;8.084;2023-03-04T04:54:45;9.60;;;2.20;;
20531;SDS011;10424;52.102;8.084;2023-03-04T04:57:12;11.60;;;2.30;;
20531;SDS011;10424;52.102;8.084;2023-03-04T04:59:40;13.13;;;2.53;;
20531;SDS011;10424;52.102;8.084;2023-03-04T05:02:08;13.03;;;2.40;;
20531;SDS011;10424;52.102;8.084;2023-03-04T05:04:36;8.73;;;2.47;;
20531;SDS011;10424;52.102;8.084;2023-03-04T05:07:03;11.97;;;2.10;;
20531;SDS011;10424;52.102;8.084;2023-03-04T05:09:30;14.30;;;2.20;;
20531;SDS011;10424;52.102;8.084;2023-03-04T05:11:57;10.77;;;2.33;;
20531;SDS011;10424;52.102;8.084;2023-03-04T05:14:25;9.73;;;2.40;;
20531;SDS011;10424;52.102;8.084;2023-03-04T05:16:52;8.80;;;2.57;;
20531;SDS011;10424;52.102;8.084;2023-03-04T05:19:21;9.07;;;2.17;;
20531;SDS011;10424;52.102;8.084;2023-03-04T05:21:48;9.97;;;2.20;;
20531;SDS011;10424;52.102;8.084;2023-03-04T05:24:15;10.83;;;2.73;;
20531;SDS011;10424;52.102;8.084;2023-03-04T05:26:43;15.00;;;2.50;;
20531;SDS011;10424;52.102;8.084;2023-03-04T05:29:10;12.53;;;2.70;;
20531;SDS011;10424;52.102;8.084;2023-03-04T05:31:37;13.30;;;3.10;;
20531;SDS011;10424;52.102;8.084;2023-03-04T05:34:04;11.33;;;2.70;;
20531;SDS011;10424;52.102;8.084;2023-03-04T05:36:33;9.53;;;2.33;;
20531;SDS011;10424;52.102;8.084;2023-03-04T05:39:00;12.37;;;2.57;;
20531;SDS011;10424;52.102;8.084;2023-03-04T05:41:27;14.53;;;2.40;;
20531;SDS011;10424;52.102;8.084;2023-03-04T05:43:55;13.73;;;2.90;;
20531;SDS011;10424;52.102;8.084;2023-03-04T05:46:22;11.03;;;2.83;;
20531;SDS011;10424;52.102;8.084;2023-03-04T05:48:49;10.67;;;2.70;;
20531;SDS011;10424;52.102;8.084;2023-03-04T05:51:17;10.83;;;2.47;;
20531;SDS011;10424;52.102;8.084;2023-03-04T05:53:46;12.07;;;3.00;;
20531;SDS011;10424;52.102;8.084;2023-03-04T05:56:14;11.33;;;2.40;;
20531;SDS011;10424;52.102;8.084;2023-03-04T05:58:42;9.33;;;2.47;;
20531;SDS011;10424;52.102;8.084;2023-03-04T06:01:09;17.23;;;2.90;;
20531;SDS011;10424;52.102;8.084;2023-03-04T06:03:36;12.83;;;2.60;;
20531;SDS011;10424;52.102;8.084;2023-03-04T06:06:04;14.70;;;2.77;;
20531;SDS011;10424;52.102;8.084;2023-03-04T06:08:31;10.57;;;2.73;;
20531;SDS011;10424;52.102;8.084;2023-03-04T06:11:00;8.27;;;2.33;;
20531;SDS011;10424;52.102;8.084;2023-03-04T06:13:29;11.30;;;2.47;;
20531;SDS011;10424;52.102;8.084;2023-03-04T06:15:57;9.73;;;2.93;;
20531;SDS011;10424;52.102;8.084;2023-03-04T06:18:25;12.43;;;2.80;;
20531;SDS011;10424;52.102;8.084;2023-03-04T06:20:54;10.53;;;2.57;;
20531;SDS011;10424;52.102;8.084;2023-03-04T06:23:21;11.37;;;2.57;;
20531;SDS011;10424;52.102;8.084;2023-03-04T06:25:50;11.23;;;2.57;;
20531;SDS011;10424;52.102;8.084;2023-03-04T06:28:18;7.53;;;2.47;;
20531;SDS011;10424;52.102;8.084;2023-03-04T06:30:46;12.40;;;2.20;;
20531;SDS011;10424;52.102;8.084;2023-03-04T06:33:13;10.53;;;2.57;;
20531;SDS011;10424;52.102;8.084;2023-03-04T06:35:40;8.40;;;2.33;;
20531;SDS011;10424;52.102;8.084;2023-03-04T06:38:07;9.00;;;2.30;;
20531;SDS011;10424;52.102;8.084;2023-03-04T06:40:35;11.30;;;2.60;;
20531;SDS011;10424;52.102;8.084;2023-03-04T06:43:02;14.43;;;2.50;;
20531;SDS011;10424;52.102;8.084;2023-03-04T06:45:31;13.17;;;2.30;;
20531;SDS011;10424;52.102;8.084;2023-03-04T06:47:58;8.17;;;2.20;;
20531;SDS011;10424;52.102;8.084;2023-03-04T06:50:25;5.97;;;2.10;;
20531;SDS011;10424;52.102;8.084;2023-03-04T06:52:53;8.03;;;2.20;;
20531;SDS011;10424;52.102;8.084;2023-03-04T06:55:22;11.50;;;2.47;;
20531;SDS011;10424;52.102;8.084;2023-03-04T06:57:49;11.60;;;2.13;;
20531;SDS011;10424;52.102;8.084;2023-03-04T07:00:17;8.73;;;2.27;;
20531;SDS011;10424;52.102;8.084;2023-03-04T07:02:45;9.63;;;2.27;;
20531;SDS011;10424;52.102;8.084;2023-03-04T07:05:13;6.13;;;1.93;;
20531;SDS011;10424;52.102;8.084;2023-03-04T07:07:40;9.93;;;2.10;;
20531;SDS011;10424;52.102;8.084;2023-03-04T07:10:08;7.97;;;2.00;;
20531;SDS011;10424;52.102;8.084;2023-03-04T07:12:36;6.77;;;2.10;;
20531;SDS011;10424;52.102;8.084;2023-03-04T07:15:03;10.50;;;2.40;;
20531;SDS011;10424;52.102;8.084;2023-03-04T07:17:31;10.40;;;2.47;;
20531;SDS011;10424;52.102;8.084;2023-03-04T07:20:00;11.40;;;2.00;;
20531;SDS011;10424;52.102;8.084;2023-03-04T07:22:28;8.50;;;2.13;;
20531;SDS011;10424;52.102;8.084;2023-03-04T07:24:55;9.37;;;2.37;;
20531;SDS011;10424;52.102;8.084;2023-03-04T07:27:22;9.73;;;2.43;;
20531;SDS011;10424;52.102;8.084;2023-03-04T07:29:50;6.73;;;1.80;;
20531;SDS011;10424;52.102;8.084;2023-03-04T07:32:17;9.80;;;1.90;;
20531;SDS011;10424;52.102;8.084;2023-03-04T07:34:44;9.97;;;1.90;;
20531;SDS011;10424;52.102;8.084;2023-03-04T07:37:14;10.60;;;2.40;;
20531;SDS011;10424;52.102;8.084;2023-03-04T07:39:41;9.47;;;2.37;;
20531;SDS011;10424;52.102;8.084;2023-03-04T07:42:08;8.17;;;2.00;;
20531;SDS011;10424;52.102;8.084;2023-03-04T07:44:35;6.23;;;2.37;;
20531;SDS011;10424;52.102;8.084;2023-03-04T07:47:03;11.57;;;2.60;;
20531;SDS011;10424;52.102;8.084;2023-03-04T07:49:30;7.90;;;2.50;;
20531;SDS011;10424;52.102;8.084;2023-03-04T07:51:57;12.33;;;3.07;;
20531;SDS011;10424;52.102;8.084;2023-03-04T07:54:26;7.37;;;2.57;;
20531;SDS011;10424;52.102;8.084;2023-03-04T07:56:53;16.63;;;3.60;;
20531;SDS011;10424;52.102;8.084;2023-03-04T07:59:21;8.20;;;2.50;;
20531;SDS011;10424;52.102;8.084;2023-03-04T08:01:48;8.80;;;2.50;;
20531;SDS011;10424;52.102;8.084;2023-03-04T08:04:15;10.13;;;2.87;;
20531;SDS011;10424;52.102;8.084;2023-03-04T08:06:43;13.10;;;2.97;;
20531;SDS011;10424;52.102;8.084;2023-03-04T08:09:11;9.70;;;2.60;;
20531;SDS011;10424;52.102;8.084;2023-03-04T08:11:40;12.93;;;2.80;;
20531;SDS011;10424;52.102;8.084;2023-03-04T08:14:07;15.37;;;2.77;;
20531;SDS011;10424;52.102;8.084;2023-03-04T08:16:36;7.97;;;2.60;;
20531;SDS011;10424;52.102;8.084;2023-03-04T08:19:04;6.87;;;2.40;;
20531;SDS011;10424;52.102;8.084;2023-03-04T08:21:31;11.80;;;2.63;;
20531;SDS011;10424;52.102;8.084;2023-03-04T08:23:59;7.97;;;2.63;;
20531;SDS011;10424;52.102;8.084;2023-03-04T08:26:33;5.40;;;2.00;;
20531;SDS011;10424;52.102;8.084;2023-03-04T08:29:04;8.83;;;2.10;;
20531;SDS011;10424;52.102;8.084;2023-03-04T08:31:31;8.43;;;2.40;;
20531;SDS011;10424;52.102;8.084;2023-03-04T08:33:59;7.67;;;2.63;;
20531;SDS011;10424;52.102;8.084;2023-03-04T08:36:28;9.37;;;2.60;;
20531;SDS011;10424;52.102;8.084;2023-03-04T08:38:55;10.83;;;2.47;;
20531;SDS011;10424;52.102;8.084;2023-03-04T08:41:22;11.73;;;2.90;;
20531;SDS011;10424;52.102;8.084;2023-03-04T08:43:51;15.73;;;2.90;;
20531;SDS011;10424;52.102;8.084;2023-03-04T08:46:20;11.00;;;3.00;;
20531;SDS011;10424;52.102;8.084;2023-03-04T08:48:47;8.10;;;2.53;;
20531;SDS011;10424;52.102;8.084;2023-03-04T08:51:15;12.10;;;2.80;;
20531;SDS011;10424;52.102;8.084;2023-03-04T08:53:42;11.17;;;2.70;;
20531;SDS011;10424;52.102;8.084;2023-03-04T08:56:10;9.20;;;2.50;;
20531;SDS011;10424;52.102;8.084;2023-03-04T08:58:37;5.93;;;2.60;;
20531;SDS011;10424;52.102;8.084;2023-03-04T09:01:06;8.30;;;2.77;;
20531;SDS011;10424;52.102;8.084;2023-03-04T09:03:35;9.30;;;3.10;;
20531;SDS011;10424;52.102;8.084;2023-03-04T09:06:02;8.73;;;2.63;;
20531;SDS011;10424;52.102;8.084;2023-03-04T09:08:30;7.57;;;2.37;;
20531;SDS011;10424;52.102;8.084;2023-03-04T09:10:57;9.30;;;3.03;;
20531;SDS011;10424;52.102;8.084;2023-03-04T09:13:26;8.10;;;2.53;;
20531;SDS011;10424;52.102;8.084;2023-03-04T09:15:54;7.63;;;2.50;;
20531;SDS011;10424;52.102;8.084;2023-03-04T09:18:22;9.10;;;2.70;;
20531;SDS011;10424;52.102;8.084;2023-03-04T09:20:51;10.47;;;3.33;;
20531;SDS011;10424;52.102;8.084;2023-03-04T09:23:19;7.43;;;3.13;;
20531;SDS011;10424;52.102;8.084;2023-03-04T09:25:46;11.00;;;3.83;;
20531;SDS011;10424;52.102;8.084;2023-03-04T09:28:14;6.10;;;2.53;;
20531;SDS011;10424;52.102;8.084;2023-03-04T09:30:42;7.13;;;2.87;;
20531;SDS011;10424;52.102;8.084;2023-03-04T09:33:09;8.70;;;2.97;;
20531;SDS011;10424;52.102;8.084;2023-03-04T09:35:37;12.47;;;3.67;;
20531;SDS011;10424;52.102;8.084;2023-03-04T09:38:06;9.00;;;2.87;;
20531;SDS011;10424;52.102;8.084;2023-03-04T09:40:36;4.40;;;2.40;;
20531;SDS011;10424;52.102;8.084;2023-03-04T09:43:06;9.03;;;3.10;;
20531;SDS011;10424;52.102;8.084;2023-03-04T09:45:34;7.70;;;2.30;;
20531;SDS011;10424;52.102;8.084;2023-03-04T09:48:03;7.27;;;2.90;;
20531;SDS011;10424;52.102;8.084;2023-03-04T09:50:32;7.13;;;3.27;;
20531;SDS011;10424;52.102;8.084;2023-03-04T09:53:05;6.63;;;2.90;;
20531;SDS011;10424;52.102;8.084;2023-03-04T09:55:36;10.20;;;2.90;;
20531;SDS011;10424;52.102;8.084;2023-03-04T09:58:06;9.07;;;2.63;;
20531;SDS011;10424;52.102;8.084;2023-03-04T10:00:38;7.73;;;2.70;;
20531;SDS011;10424;52.102;8.084;2023-03-04T10:03:10;6.03;;;2.77;;
20531;SDS011;10424;52.102;8.084;2023-03-04T10:05:40;6.47;;;2.53;;
20531;SDS011;10424;52.102;8.084;2023-03-04T10:08:14;5.63;;;2.50;;
20531;SDS011;10424;52.102;8.084;2023-03-04T10:10:44;6.13;;;2.80;;
20531;SDS011;10424;52.102;8.084;2023-03-04T10:13:13;9.00;;;3.20;;
20531;SDS011;10424;52.102;8.084;2023-03-04T10:15:42;10.13;;;2.83;;
20531;SDS011;10424;52.102;8.084;2023-03-04T10:18:11;8.20;;;3.33;;
20531;SDS011;10424;52.102;8.084;2023-03-04T10:20:43;9.77;;;3.30;;
20531;SDS011;10424;52.102;8.084;2023-03-04T10:23:14;9.73;;;3.00;;
20531;SDS011;10424;52.102;8.084;2023-03-04T10:25:45;8.23;;;2.77;;
20531;SDS011;10424;52.102;8.084;2023-03-04T10:28:18;6.87;;;2.97;;
20531;SDS011;10424;52.102;8.084;2023-03-04T10:30:47;9.20;;;2.73;;
20531;SDS011;10424;52.102;8.084;2023-03-04T10:33:18;6.27;;;2.70;;
20531;SDS011;10424;52.102;8.084;2023-03-04T10:35:46;5.83;;;2.90;;
20531;SDS011;10424;52.102;8.084;2023-03-04T10:38:14;6.87;;;2.67;;
20531;SDS011;10424;52.102;8.084;2023-03-04T10:40:42;7.20;;;3.23;;
20531;SDS011;10424;52.102;8.084;2023-03-04T10:43:17;9.20;;;3.63;;
20531;SDS011;10424;52.102;8.084;2023-03-04T10:45:45;5.68;;;2.60;;
20531;SDS011;10424;52.102;8.084;2023-03-04T10:48:19;7.70;;;2.50;;
20531;SDS011;10424;52.102;8.084;2023-03-04T10:50:47;6.72;;;2.55;;
20531;SDS011;10424;52.102;8.084;2023-03-04T10:53:24;7.90;;;2.33;;
20531;SDS011;10424;52.102;8.084;2023-03-04T10:55:52;5.88;;;2.10;;
20531;SDS011;10424;52.102;8.084;2023-03-04T10:58:21;5.35;;;2.30;;
20531;SDS011;10424;52.102;8.084;2023-03-04T11:00:52;8.25;;;2.33;;
20531;SDS011;10424;52.102;8.084;2023-03-04T11:03:27;5.70;;;1.80;;
20531;SDS011;10424;52.102;8.084;2023-03-04T11:06:05;8.48;;;1.90;;
20531;SDS011;10424;52.102;8.084;2023-03-04T11:08:33;5.97;;;1.90;;
20531;SDS011;10424;52.102;8.084;2023-03-04T11:11:00;5.28;;;1.67;;
20531;SDS011;10424;52.102;8.084;2023-03-04T11:13:29;6.38;;;1.75;;
20531;SDS011;10424;52.102;8.084;2023-03-04T11:15:58;3.70;;;1.33;;
20531;SDS011;10424;52.102;8.084;2023-03-04T11:18:27;6.38;;;2.00;;
20531;SDS011;10424;52.102;8.084;2023-03-04T11:20:57;6.47;;;2.00;;
20531;SDS011;10424;52.102;8.084;2023-03-04T11:23:28;6.40;;;2.10;;
20531;SDS011;10424;52.102;8.084;2023-03-04T11:25:59;7.15;;;2.10;;
20531;SDS011;10424;52.102;8.084;2023-03-04T11:28:28;6.32;;;1.95;;
20531;SDS011;10424;52.102;8.084;2023-03-04T11:30:59;11.20;;;2.35;;
20531;SDS011;10424;52.102;8.084;2023-03-04T11:33:31;8.57;;;1.70;;
20531;SDS011;10424;52.102;8.084;2023-03-04T11:36:03;11.00;;;2.05;;
20531;SDS011;10424;52.102;8.084;2023-03-04T11:38:35;8.75;;;1.70;;
20531;SDS011;10424;52.102;8.084;2023-03-04T11:41:03;8.32;;;1.70;;
20531;SDS011;10424;52.102;8.084;2023-03-04T11:43:33;8.60;;;1.83;;
20531;SDS011;10424;52.102;8.084;2023-03-04T11:46:07;8.20;;;1.70;;
20531;SDS011;10424;52.102;8.084;2023-03-04T11:48:41;7.03;;;1.85;;
20531;SDS011;10424;52.102;8.084;2023-03-04T11:51:12;8.05;;;1.60;;
20531;SDS011;10424;52.102;8.084;2023-03-04T11:53:48;8.32;;;1.73;;
20531;SDS011;10424;52.102;8.084;2023-03-04T11:56:23;7.70;;;1.90;;
20531;SDS011;10424;52.102;8.084;2023-03-04T12:01:40;9.30;;;1.90;;
20531;SDS011;10424;52.102;8.084;2023-03-04T12:04:13;6.67;;;1.83;;
20531;SDS011;10424;52.102;8.084;2023-03-04T12:06:46;10.20;;;2.60;;
20531;SDS011;10424;52.102;8.084;2023-03-04T12:09:20;8.13;;;2.30;;
20531;SDS011;10424;52.102;8.084;2023-03-04T12:11:52;8.17;;;2.43;;
20531;SDS011;10424;52.102;8.084;2023-03-04T12:14:23;6.80;;;1.90;;
20531;SDS011;10424;52.102;8.084;2023-03-04T12:17:02;10.50;;;1.93;;
20531;SDS011;10424;52.102;8.084;2023-03-04T12:19:38;14.10;;;2.17;;
20531;SDS011;10424;52.102;8.084;2023-03-04T12:22:11;10.50;;;2.83;;
20531;SDS011;10424;52.102;8.084;2023-03-04T12:24:49;8.85;;;1.92;;
20531;SDS011;10424;52.102;8.084;2023-03-04T12:27:22;7.43;;;1.80;;
20531;SDS011;10424;52.102;8.084;2023-03-04T12:29:55;9.88;;;2.03;;
20531;SDS011;10424;52.102;8.084;2023-03-04T12:32:25;8.55;;;1.88;;
20531;SDS011;10424;52.102;8.084;2023-03-04T12:35:07;9.55;;;1.75;;
20531;SDS011;10424;52.102;8.084;2023-03-04T12:37:43;5.03;;;1.60;;
20531;SDS011;10424;52.102;8.084;2023-03-04T12:40:22;6.85;;;1.80;;
20531;SDS011;10424;52.102;8.084;2023-03-04T12:42:57;12.55;;;1.85;;
20531;SDS011;10424;52.102;8.084;2023-03-04T12:45:29;6.22;;;1.40;;
20531;SDS011;10424;52.102;8.084;2023-03-04T12:48:01;10.88;;;1.70;;
20531;SDS011;10424;52.102;8.084;2023-03-04T12:50:35;7.32;;;1.48;;
20531;SDS011;10424;52.102;8.084;2023-03-04T12:53:06;8.45;;;1.70;;
20531;SDS011;10424;52.102;8.084;2023-03-04T12:55:35;10.55;;;1.60;;
20531;SDS011;10424;52.102;8.084;2023-03-04T12:58:03;6.28;;;1.65;;
20531;SDS011;10424;52.102;8.084;2023-03-04T13:00:34;5.90;;;1.60;;
20531;SDS011;10424;52.102;8.084;2023-03-04T13:03:07;5.57;;;1.50;;
20531;SDS011;10424;52.102;8.084;2023-03-04T13:05:50;8.23;;;1.90;;
20531;SDS011;10424;52.102;8.084;2023-03-04T13:08:25;7.45;;;1.60;;
20531;SDS011;10424;52.102;8.084;2023-03-04T13:10:59;6.82;;;1.50;;
20531;SDS011;10424;52.102;8.084;2023-03-04T13:13:38;4.78;;;1.23;;
20531;SDS011;10424;52.102;8.084;2023-03-04T13:16:05;5.38;;;1.25;;
20531;SDS011;10424;52.102;8.084;2023-03-04T13:18:54;4.70;;;0.90;;
20531;SDS011;10424;52.102;8.084;2023-03-04T13:21:22;4.35;;;1.10;;
20531;SDS011;10424;52.102;8.084;2023-03-04T13:23:49;5.03;;;1.10;;
20531;SDS011;10424;52.102;8.084;2023-03-04T13:26:21;3.03;;;0.88;;
20531;SDS011;10424;52.102;8.084;2023-03-04T13:28:52;5.05;;;1.35;;
20531;SDS011;10424;52.102;8.084;2023-03-04T13:31:21;3.42;;;1.30;;
20531;SDS011;10424;52.102;8.084;2023-03-04T13:33:59;4.53;;;1.17;;
20531;SDS011;10424;52.102;8.084;2023-03-04T13:36:28;3.55;;;1.40;;
20531;SDS011;10424;52.102;8.084;2023-03-04T13:38:56;5.90;;;1.58;;
20531;SDS011;10424;52.102;8.084;2023-03-04T13:41:28;7.43;;;1.73;;
20531;SDS011;10424;52.102;8.084;2023-03-04T13:43:56;6.88;;;1.50;;
20531;SDS011;10424;52.102;8.084;2023-03-04T13:46:41;6.90;;;1.42;;
20531;SDS011;10424;52.102;8.084;2023-03-04T13:49:17;9.65;;;1.98;;
20531;SDS011;10424;52.102;8.084;2023-03-04T13:51:45;7.50;;;1.60;;
20531;SDS011;10424;52.102;8.084;2023-03-04T13:54:13;4.60;;;1.60;;
20531;SDS011;10424;52.102;8.084;2023-03-04T13:56:41;6.70;;;1.48;;
20531;SDS011;10424;52.102;8.084;2023-03-04T13:59:21;6.88;;;1.45;;
20531;SDS011;10424;52.102;8.084;2023-03-04T14:01:51;10.48;;;1.75;;
20531;SDS011;10424;52.102;8.084;2023-03-04T14:04:22;5.85;;;1.38;;
20531;SDS011;10424;52.102;8.084;2023-03-04T14:06:52;13.77;;;1.85;;
20531;SDS011;10424;52.102;8.084;2023-03-04T14:09:22;9.48;;;1.85;;
20531;SDS011;10424;52.102;8.084;2023-03-04T14:11:51;5.32;;;2.08;;
20531;SDS011;10424;52.102;8.084;2023-03-04T14:14:20;10.23;;;1.80;;
20531;SDS011;10424;52.102;8.084;2023-03-04T14:16:49;10.82;;;1.83;;
20531;SDS011;10424;52.102;8.084;2023-03-04T14:19:18;6.65;;;1.90;;
20531;SDS011;10424;52.102;8.084;2023-03-04T14:21:50;6.30;;;1.65;;
20531;SDS011;10424;52.102;8.084;2023-03-04T14:24:18;6.05;;;1.48;;
20531;SDS011;10424;52.102;8.084;2023-03-04T14:26:45;11.35;;;1.98;;
20531;SDS011;10424;52.102;8.084;2023-03-04T14:29:20;8.98;;;1.75;;
20531;SDS011;10424;52.102;8.084;2023-03-04T14:31:48;7.85;;;1.70;;
20531;SDS011;10424;52.102;8.084;2023-03-04T14:34:16;9.98;;;2.22;;
20531;SDS011;10424;52.102;8.084;2023-03-04T14:36:46;9.40;;;2.33;;
20531;SDS011;10424;52.102;8.084;2023-03-04T14:39:15;10.52;;;2.40;;
20531;SDS011;10424;52.102;8.084;2023-03-04T14:41:44;10.73;;;3.08;;
20531;SDS011;10424;52.102;8.084;2023-03-04T14:44:13;9.30;;;2.88;;
20531;SDS011;10424;52.102;8.084;2023-03-04T14:46:44;9.48;;;1.90;;
20531;SDS011;10424;52.102;8.084;2023-03-04T14:49:14;9.95;;;2.65;;
20531;SDS011;10424;52.102;8.084;2023-03-04T14:51:42;10.23;;;2.25;;
20531;SDS011;10424;52.102;8.084;2023-03-04T14:54:31;10.05;;;2.05;;